M I D A S
Marine Information and Data Acquisition System
Tripno 2156 of the Zeeleeuw from 2011-08-02 06:40:21 to 2011-08-02 15:04:15
Back to CruiseResearch ActivitiesStationsMapUnderway DataData graphs

EquipmentUnitsComments
TimeDGPSUTC
LatitudeDGPSDM.mWGS84
LongitudeDGPSDM.mWGS84
SpeedMeteo Stationm/sRelative wind speed
DirectionMeteo StationdegRelative wind direction
TemperatureMeteo Stationdeg CelciusAir temperature
PressureMeteo StationPaAtmospheric pressure
HumidityMeteo Station%Relative humidity
Missing or incorrect values are displayed as -999
Metereological data collected by the RV Zeeleeuw from 2011-08-02 06:20:20 to 2011-08-02 16:17:02
Time Latitude Longitude Speed Direction Temperature Pressure Humidity
2011-08-02 06:21 51°13.637 2°56.021 -999 329 17.8 101450 47
2011-08-02 06:22 51°13.637 2°56.02 -999 323 17.9 101450 47
2011-08-02 06:23 51°13.637 2°56.02 -999 326 17.9 101450 47
2011-08-02 06:24 51°13.636 2°56.02 -999 324 18 101450 47
2011-08-02 06:25 51°13.636 2°56.02 -999 332 18.1 101450 46
2011-08-02 06:26 51°13.636 2°56.019 -999 322 18.1 101460 46
2011-08-02 06:27 51°13.636 2°56.019 -999 322 18.1 101450 47
2011-08-02 06:28 51°13.636 2°56.019 -999 320 18.3 101450 45
2011-08-02 06:29 51°13.637 2°56.019 -999 327 18.3 101450 46
2011-08-02 06:30 51°13.635 2°56.019 -999 329 18.3 101450 46
2011-08-02 06:31 51°13.634 2°56.019 -999 329 18.3 101450 46
2011-08-02 06:32 51°13.634 2°56.02 -999 323 18.4 101450 46
2011-08-02 06:33 51°13.634 2°56.02 -999 326 18.4 101450 45
2011-08-02 06:34 51°13.635 2°56.019 -999 324 18.5 101450 46
2011-08-02 06:35 51°13.635 2°56.019 -999 326 18.5 101450 46
2011-08-02 06:36 51°13.636 2°56.019 -999 25 18.7 101460 44
2011-08-02 06:37 51°13.636 2°56.019 -999 25 18.8 101460 45
2011-08-02 06:38 51°13.636 2°56.019 -999 328 18.8 101450 45
2011-08-02 06:39 51°13.636 2°56.018 -999 329 18.9 101450 45
2011-08-02 06:40 51°13.636 2°56.018 -999 334 18.9 101450 45
2011-08-02 06:41 51°13.635 2°56.017 -999 324 18.9 101450 45
2011-08-02 06:42 51°13.636 2°56.015 -999 320 19 101450 45
2011-08-02 06:43 51°13.635 2°56.013 -999 25 19.1 101450 45
2011-08-02 06:44 51°13.632 2°56.015 -999 25 19.2 101450 43
2011-08-02 06:45 51°13.611 2°56.043 0.6 318 19.3 101450 44
2011-08-02 06:46 51°13.574 2°56.095 0.9 318 19.3 101450 43
2011-08-02 06:47 51°13.548 2°56.142 1.5 318 19.2 101440 44
2011-08-02 06:48 51°13.536 2°56.19 1.8 329 19.1 101440 44
2011-08-02 06:49 51°13.545 2°56.237 0.7 339 19 101440 45
2011-08-02 06:50 51°13.545 2°56.241 -999 352 18.8 101450 45
2011-08-02 06:51 51°13.548 2°56.243 -999 22 18.7 101450 45
2011-08-02 06:52 51°13.546 2°56.24 1 26 18.6 101450 44
2011-08-02 06:53 51°13.522 2°56.254 1.3 24 18.6 101450 46
2011-08-02 06:54 51°13.545 2°56.19 -999 356 18.6 101450 46
2011-08-02 06:55 51°13.587 2°56.055 -999 347 18.6 101450 46
2011-08-02 06:56 51°13.652 2°55.907 -999 339 18.5 101450 46
2011-08-02 06:57 51°13.725 2°55.749 0.1 332 18.5 101450 46
2011-08-02 06:58 51°13.83 2°55.623 2.6 348 18.5 101450 47
2011-08-02 06:59 51°13.954 2°55.541 2.3 350 18.5 101440 46
2011-08-02 07:00 51°14.085 2°55.454 0.5 348 18.4 101450 45
2011-08-02 07:01 51°14.213 2°55.347 -999 338 18.3 101450 46
2011-08-02 07:02 51°14.359 2°55.212 1.2 338 18.4 101450 46
2011-08-02 07:03 51°14.505 2°55.055 3.5 338 18.4 101450 46
2011-08-02 07:04 51°14.654 2°54.846 4.5 339 18.6 101450 46
2011-08-02 07:05 51°14.825 2°54.65 4.1 337 18.6 101450 47
2011-08-02 07:06 51°14.989 2°54.435 3.9 340 18.6 101450 46
2011-08-02 07:07 51°15.147 2°54.204 3.5 338 18.6 101450 47
2011-08-02 07:08 51°15.313 2°54.014 4.5 338 18.6 101450 47
2011-08-02 07:09 51°15.479 2°53.799 5 337 18.5 101450 47
2011-08-02 07:10 51°15.652 2°53.615 4.6 339 18.3 101450 48
2011-08-02 07:11 51°15.825 2°53.419 4.9 341 18.3 101450 48
2011-08-02 07:12 51°16.011 2°53.26 3.7 340 18.2 101460 48
2011-08-02 07:13 51°16.19 2°53.084 4.2 339 18.2 101460 49
2011-08-02 07:14 51°16.381 2°52.935 4.8 337 18.2 101460 49
2011-08-02 07:15 51°16.567 2°52.793 5.1 337 18.3 101460 48
2011-08-02 07:16 51°16.764 2°52.678 4.2 339 18.3 101460 48
2011-08-02 07:17 51°16.954 2°52.586 5.6 340 18.3 101460 49
2011-08-02 07:18 51°17.152 2°52.544 5.7 345 18.2 101470 49
2011-08-02 07:19 51°17.352 2°52.493 4.7 344 18.1 101460 50
2011-08-02 07:20 51°17.551 2°52.424 4.7 344 18 101470 50
2011-08-02 07:21 51°17.746 2°52.329 4.7 341 18 101470 50
2011-08-02 07:22 51°17.942 2°52.244 4.6 344 18 101470 49
2011-08-02 07:23 51°18.142 2°52.172 5.1 343 17.9 101470 50
2011-08-02 07:24 51°18.342 2°52.118 5.1 345 18 101470 49
2011-08-02 07:25 51°18.544 2°52.067 5.5 343 18 101480 51
2011-08-02 07:26 51°18.743 2°51.986 4.5 341 18 101480 50
2011-08-02 07:27 51°18.938 2°51.876 4.3 341 18.1 101480 50
2011-08-02 07:28 51°19.137 2°51.783 4.5 338 18.1 101480 50
2011-08-02 07:29 51°19.333 2°51.669 4.7 338 18.1 101480 51
2011-08-02 07:30 51°19.531 2°51.565 4.8 340 18.2 101490 51
2011-08-02 07:31 51°19.73 2°51.481 4.5 341 18.2 101480 50
2011-08-02 07:32 51°19.927 2°51.386 4.1 340 18.3 101480 49
2011-08-02 07:33 51°20.125 2°51.284 4.2 340 18.3 101480 51
2011-08-02 07:34 51°20.323 2°51.181 4.9 339 18.3 101490 50
2011-08-02 07:35 51°20.524 2°51.089 4.8 340 18.3 101490 50
2011-08-02 07:36 51°20.721 2°50.982 4.2 338 18.3 101490 50
2011-08-02 07:37 51°20.922 2°50.899 4.6 341 18.3 101490 50
2011-08-02 07:38 51°21.122 2°50.792 5 339 18.3 101490 51
2011-08-02 07:39 51°21.324 2°50.694 3.9 339 18.4 101490 50
2011-08-02 07:40 51°21.526 2°50.596 4.4 337 18.4 101490 51
2011-08-02 07:41 51°21.728 2°50.499 4.2 339 18.4 101490 51
2011-08-02 07:42 51°21.928 2°50.396 5.2 338 18.4 101500 50
2011-08-02 07:43 51°22.13 2°50.301 5.1 338 18.4 101490 50
2011-08-02 07:44 51°22.332 2°50.199 4.4 339 18.4 101490 50
2011-08-02 07:45 51°22.536 2°50.109 4.5 340 18.5 101490 50
2011-08-02 07:46 51°22.736 2°49.998 4.3 339 18.5 101490 50
2011-08-02 07:47 51°22.94 2°49.901 4 341 18.5 101500 50
2011-08-02 07:48 51°23.14 2°49.826 5.4 342 18.6 101500 49
2011-08-02 07:49 51°23.339 2°49.717 4.2 340 18.6 101490 51
2011-08-02 07:50 51°23.54 2°49.625 4.7 342 18.5 101500 51
2011-08-02 07:51 51°23.741 2°49.538 3.8 343 18.5 101500 50
2011-08-02 07:52 51°23.94 2°49.44 4.2 341 18.5 101500 51
2011-08-02 07:53 51°24.14 2°49.34 4.1 343 18.5 101500 52
2011-08-02 07:54 51°24.341 2°49.229 3.8 340 18.5 101500 52
2011-08-02 07:55 51°24.531 2°49.096 3.4 342 18.5 101500 51
2011-08-02 07:56 51°24.724 2°48.949 3.9 341 18.5 101500 50
2011-08-02 07:57 51°24.914 2°48.82 3.6 342 18.5 101500 52
2011-08-02 07:58 51°25.109 2°48.674 4.6 345 18.5 101500 51
2011-08-02 07:59 51°25.305 2°48.576 4.4 345 18.4 101500 51
2011-08-02 08:00 51°25.507 2°48.515 4.5 347 18.3 101490 52
2011-08-02 08:01 51°25.706 2°48.48 4.7 348 18.2 101490 52
2011-08-02 08:02 51°25.876 2°48.447 4.1 356 18.2 101500 52
2011-08-02 08:03 51°25.969 2°48.491 4.4 355 18.2 101500 53
2011-08-02 08:04 51°25.999 2°48.537 3.6 356 18.2 101500 51
2011-08-02 08:05 51°25.998 2°48.543 2.9 352 18.2 101500 52
2011-08-02 08:06 51°25.992 2°48.535 2.8 355 18.2 101500 52
2011-08-02 08:07 51°25.985 2°48.519 2.9 355 18.2 101500 53
2011-08-02 08:08 51°25.978 2°48.497 2.8 356 18.3 101510 53
2011-08-02 08:09 51°25.972 2°48.471 3 356 18.3 101500 53
2011-08-02 08:10 51°25.964 2°48.443 2.2 -999 18.3 101500 53
2011-08-02 08:11 51°25.957 2°48.412 1.1 3 18.3 101510 53
2011-08-02 08:12 51°25.949 2°48.379 1.9 3 18.4 101510 52
2011-08-02 08:13 51°25.942 2°48.348 2.7 360 18.4 101510 52
2011-08-02 08:14 51°25.96 2°48.399 5.4 353 18.4 101510 52
2011-08-02 08:15 51°26.02 2°48.498 3.8 360 18.3 101510 52
2011-08-02 08:16 51°26.058 2°48.509 2.3 22 18.3 101520 52
2011-08-02 08:17 51°26.067 2°48.487 1.8 18 18.4 101520 52
2011-08-02 08:18 51°26.07 2°48.461 1.6 16 18.4 101520 52
2011-08-02 08:19 51°26.069 2°48.432 2.3 20 18.5 101520 52
2011-08-02 08:20 51°26.066 2°48.4 3 19 18.6 101520 51
2011-08-02 08:21 51°26.06 2°48.364 2.7 18 18.6 101520 52
2011-08-02 08:22 51°26.054 2°48.327 2.2 20 18.6 101520 51
2011-08-02 08:23 51°26.046 2°48.288 2.4 16 18.7 101520 52
2011-08-02 08:24 51°26.037 2°48.25 2.7 18 18.7 101520 52
2011-08-02 08:25 51°26.027 2°48.209 2.9 19 18.7 101530 51
2011-08-02 08:26 51°26.026 2°48.182 2.7 3 18.7 101520 51
2011-08-02 08:27 51°26.1 2°48.278 6 346 18.6 101520 51
2011-08-02 08:28 51°26.159 2°48.481 6.5 342 18.5 101520 50
2011-08-02 08:29 51°26.156 2°48.712 6.8 342 18.6 101520 52
2011-08-02 08:30 51°26.145 2°48.883 4.3 337 18.6 101530 52
2011-08-02 08:31 51°26.11 2°48.889 0.4 319 18.8 101530 51
2011-08-02 08:32 51°26.094 2°48.847 0.5 25 18.9 101530 51
2011-08-02 08:33 51°26.08 2°48.803 -999 26 19 101530 51
2011-08-02 08:34 51°26.066 2°48.758 0.1 248 19.2 101530 51
2011-08-02 08:35 51°26.052 2°48.714 -999 251 19.3 101530 51
2011-08-02 08:36 51°26.036 2°48.667 -999 251 19.3 101540 50
2011-08-02 08:37 51°26.007 2°48.613 0.8 20 19.4 101540 51
2011-08-02 08:38 51°25.973 2°48.561 0.1 28 19.4 101530 50
2011-08-02 08:39 51°25.946 2°48.508 -999 26 19.4 101530 50
2011-08-02 08:40 51°25.921 2°48.454 0.1 242 19.6 101530 50
2011-08-02 08:41 51°25.887 2°48.399 1.9 317 19.6 101530 50
2011-08-02 08:42 51°25.833 2°48.438 4 344 19.5 101530 48
2011-08-02 08:43 51°25.896 2°48.605 5.7 342 19.2 101520 49
2011-08-02 08:44 51°26.018 2°48.79 6.1 340 19.1 101520 48
2011-08-02 08:45 51°26.163 2°48.895 4.7 340 19 101520 50
2011-08-02 08:46 51°26.346 2°48.883 4.6 342 19 101530 50
2011-08-02 08:47 51°26.41 2°48.935 1.7 356 19 101530 51
2011-08-02 08:48 51°26.412 2°48.954 -999 360 18.8 101530 50
2011-08-02 08:49 51°26.413 2°48.959 -999 7 18.7 101530 51
2011-08-02 08:50 51°26.417 2°48.959 -999 5 18.7 101530 51
2011-08-02 08:51 51°26.415 2°48.96 -999 358 18.7 101530 51
2011-08-02 08:52 51°26.409 2°48.959 -999 357 18.7 101530 50
2011-08-02 08:53 51°26.401 2°48.952 -999 357 18.6 101530 51
2011-08-02 08:54 51°26.391 2°48.938 -999 -999 18.7 101530 52
2011-08-02 08:55 51°26.387 2°48.927 -999 7 18.7 101530 52
2011-08-02 08:56 51°26.385 2°48.912 -999 4 18.7 101530 51
2011-08-02 08:57 51°26.381 2°48.905 -999 358 18.7 101530 52
2011-08-02 08:58 51°26.378 2°48.905 -999 5 18.7 101530 52
2011-08-02 08:59 51°26.386 2°48.897 -999 11 18.7 101530 52
2011-08-02 09:00 51°26.397 2°48.879 -999 15 18.7 101530 51
2011-08-02 09:01 51°26.404 2°48.858 -999 16 18.8 101530 52
2011-08-02 09:02 51°26.404 2°48.835 -999 13 18.8 101530 52
2011-08-02 09:03 51°26.403 2°48.815 -999 11 18.9 101530 52
2011-08-02 09:04 51°26.403 2°48.801 -999 11 18.9 101530 52
2011-08-02 09:05 51°26.405 2°48.79 -999 11 18.9 101530 52
2011-08-02 09:06 51°26.41 2°48.78 -999 12 18.9 101530 52
2011-08-02 09:07 51°26.419 2°48.771 -999 12 18.9 101530 52
2011-08-02 09:08 51°26.429 2°48.764 -999 11 18.9 101520 51
2011-08-02 09:09 51°26.441 2°48.759 -999 10 18.9 101520 52
2011-08-02 09:10 51°26.457 2°48.755 -999 12 18.9 101520 52
2011-08-02 09:11 51°26.474 2°48.747 -999 13 18.9 101520 52
2011-08-02 09:12 51°26.492 2°48.735 -999 13 18.9 101520 52
2011-08-02 09:13 51°26.506 2°48.718 -999 17 18.9 101520 52
2011-08-02 09:14 51°26.511 2°48.708 -999 2 18.9 101520 52
2011-08-02 09:15 51°26.505 2°48.708 -999 356 18.9 101510 52
2011-08-02 09:16 51°26.495 2°48.704 -999 359 18.9 101520 51
2011-08-02 09:17 51°26.482 2°48.691 -999 2 18.8 101510 53
2011-08-02 09:18 51°26.467 2°48.674 0.1 2 18.8 101520 53
2011-08-02 09:19 51°26.452 2°48.652 -999 359 18.8 101520 53
2011-08-02 09:20 51°26.452 2°48.648 -999 359 18.8 101520 53
2011-08-02 09:21 51°26.454 2°48.646 -999 -999 18.8 101520 53
2011-08-02 09:22 51°26.455 2°48.645 -999 357 18.8 101520 53
2011-08-02 09:23 51°26.455 2°48.646 -999 357 18.8 101520 53
2011-08-02 09:24 51°26.454 2°48.645 -999 357 18.7 101520 52
2011-08-02 09:25 51°26.453 2°48.647 -999 358 18.7 101520 53
2011-08-02 09:26 51°26.452 2°48.646 -999 359 18.7 101520 53
2011-08-02 09:27 51°26.452 2°48.647 -999 359 18.7 101520 53
2011-08-02 09:28 51°26.453 2°48.646 -999 359 18.8 101520 53
2011-08-02 09:29 51°26.454 2°48.645 -999 2 18.8 101530 53
2011-08-02 09:30 51°26.456 2°48.644 -999 2 18.8 101530 53
2011-08-02 09:31 51°26.458 2°48.642 -999 1 18.8 101530 53
2011-08-02 09:32 51°26.459 2°48.641 -999 359 18.9 101530 52
2011-08-02 09:33 51°26.46 2°48.641 -999 358 18.9 101530 53
2011-08-02 09:34 51°26.459 2°48.641 -999 358 18.8 101530 53
2011-08-02 09:35 51°26.459 2°48.641 -999 354 18.8 101530 53
2011-08-02 09:36 51°26.458 2°48.641 -999 354 18.8 101530 53
2011-08-02 09:37 51°26.459 2°48.641 -999 352 18.8 101530 53
2011-08-02 09:38 51°26.46 2°48.641 -999 354 18.8 101530 53
2011-08-02 09:39 51°26.459 2°48.642 -999 353 18.8 101530 53
2011-08-02 09:40 51°26.459 2°48.642 -999 352 18.8 101530 53
2011-08-02 09:41 51°26.459 2°48.643 -999 351 18.8 101520 53
2011-08-02 09:42 51°26.46 2°48.643 -999 353 18.8 101530 53
2011-08-02 09:43 51°26.459 2°48.643 -999 353 18.8 101530 53
2011-08-02 09:44 51°26.459 2°48.643 -999 354 18.8 101530 53
2011-08-02 09:45 51°26.459 2°48.643 -999 354 18.8 101530 53
2011-08-02 09:46 51°26.459 2°48.642 -999 353 18.8 101530 53
2011-08-02 09:47 51°26.46 2°48.642 -999 351 18.8 101520 53
2011-08-02 09:48 51°26.459 2°48.642 -999 350 18.8 101520 53
2011-08-02 09:49 51°26.459 2°48.642 -999 348 18.9 101520 54
2011-08-02 09:50 51°26.459 2°48.642 -999 346 19.1 101530 54
2011-08-02 09:51 51°26.458 2°48.642 -999 349 19.2 101530 54
2011-08-02 09:52 51°26.458 2°48.643 -999 349 19.3 101530 53
2011-08-02 09:53 51°26.457 2°48.643 -999 347 19.4 101530 53
2011-08-02 09:54 51°26.459 2°48.642 -999 343 19.6 101530 53
2011-08-02 09:55 51°26.459 2°48.642 -999 339 19.7 101530 53
2011-08-02 09:56 51°26.459 2°48.642 -999 339 19.8 101530 53
2011-08-02 09:57 51°26.459 2°48.642 -999 335 20 101530 53
2011-08-02 09:58 51°26.459 2°48.643 -999 335 20 101540 52
2011-08-02 09:59 51°26.458 2°48.642 -999 334 20.1 101540 52
2011-08-02 10:00 51°26.458 2°48.643 -999 332 20.3 101540 52
2011-08-02 10:01 51°26.458 2°48.643 -999 330 20.3 101540 52
2011-08-02 10:02 51°26.458 2°48.642 -999 330 20.5 101540 51
2011-08-02 10:03 51°26.459 2°48.642 -999 328 20.6 101530 51
2011-08-02 10:04 51°26.459 2°48.641 -999 329 20.7 101530 51
2011-08-02 10:05 51°26.458 2°48.642 -999 329 20.8 101530 51
2011-08-02 10:06 51°26.457 2°48.642 -999 328 21 101530 51
2011-08-02 10:07 51°26.457 2°48.643 -999 328 21.1 101530 50
2011-08-02 10:08 51°26.456 2°48.644 -999 328 21.2 101530 50
2011-08-02 10:09 51°26.456 2°48.643 -999 328 21.3 101530 49
2011-08-02 10:10 51°26.457 2°48.643 -999 328 21.4 101530 49
2011-08-02 10:11 51°26.457 2°48.642 -999 328 21.5 101530 49
2011-08-02 10:12 51°26.458 2°48.643 -999 324 21.5 101530 48
2011-08-02 10:13 51°26.457 2°48.643 -999 323 21.6 101530 48
2011-08-02 10:14 51°26.457 2°48.643 -999 323 21.6 101530 48
2011-08-02 10:15 51°26.457 2°48.644 -999 323 21.6 101520 48
2011-08-02 10:16 51°26.456 2°48.644 -999 323 21.6 101520 47
2011-08-02 10:17 51°26.456 2°48.644 -999 325 21.6 101520 47
2011-08-02 10:18 51°26.458 2°48.644 -999 325 21.6 101520 47
2011-08-02 10:19 51°26.464 2°48.652 -999 326 21.5 101530 47
2011-08-02 10:20 51°26.467 2°48.663 -999 323 21.6 101520 47
2011-08-02 10:21 51°26.468 2°48.677 -999 321 21.6 101520 47
2011-08-02 10:22 51°26.465 2°48.675 -999 321 21.7 101520 47
2011-08-02 10:23 51°26.458 2°48.661 -999 321 21.6 101520 47
2011-08-02 10:24 51°26.454 2°48.655 -999 320 21.6 101520 47
2011-08-02 10:25 51°26.436 2°48.712 0.1 29 21.5 101510 47
2011-08-02 10:26 51°26.349 2°48.744 -999 326 21.3 101520 47
2011-08-02 10:27 51°26.229 2°48.627 1.5 336 21.2 101520 47
2011-08-02 10:28 51°26.117 2°48.365 4.5 335 20.9 101510 46
2011-08-02 10:29 51°25.998 2°48.039 4.5 335 20.8 101510 48
2011-08-02 10:30 51°25.874 2°47.71 4.2 333 20.5 101510 49
2011-08-02 10:31 51°25.74 2°47.392 5.6 334 20.3 101520 49
2011-08-02 10:32 51°25.613 2°47.066 5.1 331 20.2 101510 49
2011-08-02 10:33 51°25.481 2°46.743 4.5 332 20.2 101510 48
2011-08-02 10:34 51°25.344 2°46.427 5 332 20.2 101510 49
2011-08-02 10:35 51°25.204 2°46.113 4.2 332 20.2 101510 48
2011-08-02 10:36 51°25.073 2°45.79 4.1 332 20.2 101510 48
2011-08-02 10:37 51°24.941 2°45.468 4.1 332 20.2 101510 48
2011-08-02 10:38 51°24.802 2°45.15 5 331 20.3 101500 49
2011-08-02 10:39 51°24.672 2°44.824 3.8 332 20.2 101500 49
2011-08-02 10:40 51°24.532 2°44.507 5.1 331 20.1 101500 49
2011-08-02 10:41 51°24.402 2°44.171 4.8 331 20.1 101500 49
2011-08-02 10:42 51°24.264 2°43.845 4.4 331 20 101500 49
2011-08-02 10:43 51°24.133 2°43.51 4.6 331 20 101500 50
2011-08-02 10:44 51°23.995 2°43.185 4.9 334 20 101500 49
2011-08-02 10:45 51°23.867 2°42.851 3.7 332 20 101500 48
2011-08-02 10:46 51°23.786 2°42.489 4.3 333 20 101490 49
2011-08-02 10:47 51°23.709 2°42.123 4.2 333 20.1 101500 49
2011-08-02 10:48 51°23.678 2°41.752 4.6 335 20.1 101490 49
2011-08-02 10:49 51°23.639 2°41.382 3.9 334 20 101490 50
2011-08-02 10:50 51°23.609 2°41.012 3.7 338 19.9 101490 50
2011-08-02 10:51 51°23.582 2°40.642 3.9 338 20 101490 51
2011-08-02 10:52 51°23.513 2°40.29 3.4 337 20 101490 51
2011-08-02 10:53 51°23.312 2°40.15 4.4 323 19.9 101480 51
2011-08-02 10:54 51°23.083 2°40.157 4.4 327 19.8 101490 51
2011-08-02 10:55 51°22.854 2°40.145 4.1 333 19.8 101490 52
2011-08-02 10:56 51°22.626 2°40.141 4.6 325 19.8 101490 52
2011-08-02 10:57 51°22.398 2°40.074 4.7 332 19.8 101490 52
2011-08-02 10:58 51°22.168 2°40.008 3.8 330 19.7 101490 53
2011-08-02 10:59 51°21.939 2°39.929 4 327 19.7 101490 52
2011-08-02 11:00 51°21.708 2°39.863 4.9 324 19.6 101490 52
2011-08-02 11:01 51°21.483 2°39.757 4 329 19.6 101490 53
2011-08-02 11:02 51°21.314 2°39.506 4.4 341 19.7 101500 53
2011-08-02 11:03 51°21.241 2°39.15 3.9 338 19.7 101490 53
2011-08-02 11:04 51°21.171 2°38.79 3.9 337 19.7 101490 53
2011-08-02 11:05 51°21.115 2°38.427 3.6 338 19.7 101490 52
2011-08-02 11:06 51°21.048 2°38.068 5.3 337 19.7 101500 52
2011-08-02 11:07 51°20.988 2°37.709 4.9 339 19.8 101500 52
2011-08-02 11:08 51°20.935 2°37.346 3.9 341 19.8 101500 53
2011-08-02 11:09 51°20.87 2°36.987 3.7 337 19.8 101500 52
2011-08-02 11:10 51°20.812 2°36.625 4.4 337 19.8 101500 52
2011-08-02 11:11 51°20.757 2°36.263 5 339 19.9 101490 53
2011-08-02 11:12 51°20.697 2°35.903 5.6 342 20 101490 52
2011-08-02 11:13 51°20.638 2°35.542 4.9 342 20 101490 52
2011-08-02 11:14 51°20.581 2°35.182 4.4 343 19.9 101490 52
2011-08-02 11:15 51°20.518 2°34.824 4.6 343 19.8 101500 52
2011-08-02 11:16 51°20.463 2°34.463 4.7 343 19.7 101490 53
2011-08-02 11:17 51°20.398 2°34.103 3.8 343 19.6 101490 52
2011-08-02 11:18 51°20.344 2°33.74 4.9 343 19.5 101490 52
2011-08-02 11:19 51°20.273 2°33.381 4.8 344 19.5 101490 53
2011-08-02 11:20 51°20.214 2°33.021 4.3 343 19.5 101490 54
2011-08-02 11:21 51°20.142 2°32.665 4.6 342 19.4 101490 53
2011-08-02 11:22 51°20.084 2°32.304 4.4 342 19.4 101490 53
2011-08-02 11:23 51°20.013 2°31.949 3.7 344 19.4 101490 53
2011-08-02 11:24 51°19.993 2°31.588 5.6 346 19.3 101490 53
2011-08-02 11:25 51°20.005 2°31.224 5.6 345 19.3 101490 53
2011-08-02 11:26 51°20.02 2°30.862 4.9 349 19.2 101490 54
2011-08-02 11:27 51°20.061 2°30.521 6.1 348 19 101480 53
2011-08-02 11:28 51°20.121 2°30.192 5.8 349 18.9 101480 53
2011-08-02 11:29 51°20.135 2°29.863 0.9 353 18.8 101490 54
2011-08-02 11:30 51°20.064 2°29.745 2.6 258 18.9 101490 55
2011-08-02 11:31 51°20.007 2°29.787 3.9 23 19 101480 54
2011-08-02 11:32 51°19.99 2°29.815 3.4 32 19.2 101480 54
2011-08-02 11:33 51°19.98 2°29.817 3.1 320 19.3 101480 53
2011-08-02 11:34 51°19.972 2°29.816 2.7 324 19.4 101490 53
2011-08-02 11:35 51°19.963 2°29.813 2.5 323 19.5 101480 53
2011-08-02 11:36 51°19.953 2°29.808 2.5 321 19.5 101480 53
2011-08-02 11:37 51°19.943 2°29.802 1.6 316 19.6 101480 53
2011-08-02 11:38 51°19.933 2°29.797 2.1 26 19.7 101480 53
2011-08-02 11:39 51°19.923 2°29.791 3.4 28 19.7 101480 52
2011-08-02 11:40 51°19.913 2°29.785 3 22 19.8 101480 52
2011-08-02 11:41 51°19.904 2°29.777 3.2 245 19.8 101480 52
2011-08-02 11:42 51°19.896 2°29.768 2.7 253 19.9 101480 52
2011-08-02 11:43 51°19.889 2°29.759 4 257 20 101470 52
2011-08-02 11:44 51°19.884 2°29.751 2.5 264 20 101480 51
2011-08-02 11:45 51°19.879 2°29.744 2.2 269 20 101480 51
2011-08-02 11:46 51°19.875 2°29.739 3.2 30 19.8 101480 52
2011-08-02 11:47 51°19.873 2°29.736 3 28 19.7 101480 51
2011-08-02 11:48 51°19.869 2°29.735 3.3 23 19.6 101470 52
2011-08-02 11:49 51°19.864 2°29.735 3.4 25 19.5 101470 52
2011-08-02 11:50 51°19.857 2°29.736 3.1 30 19.5 101470 52
2011-08-02 11:51 51°19.85 2°29.739 3.1 28 19.4 101470 51
2011-08-02 11:52 51°19.842 2°29.743 3.2 30 19.4 101470 51
2011-08-02 11:53 51°19.834 2°29.75 3 24 19.4 101470 52
2011-08-02 11:54 51°19.826 2°29.759 2.8 270 19.4 101470 52
2011-08-02 11:55 51°19.818 2°29.769 2.8 267 19.4 101470 52
2011-08-02 11:56 51°19.81 2°29.781 0.9 265 19.4 101470 52
2011-08-02 11:57 51°19.803 2°29.797 2 265 19.4 101470 52
2011-08-02 11:58 51°19.796 2°29.813 2.3 267 19.4 101470 52
2011-08-02 11:59 51°19.789 2°29.826 2.3 265 19.4 101470 52
2011-08-02 12:00 51°19.782 2°29.842 2.8 264 19.4 101470 53
2011-08-02 12:01 51°19.769 2°29.87 5 24 19.4 101460 53
2011-08-02 12:02 51°19.772 2°29.97 5.6 333 19.4 101450 53
2011-08-02 12:03 51°19.863 2°30.025 8.2 344 19.4 101450 52
2011-08-02 12:04 51°19.979 2°30.069 6.8 342 19.3 101450 52
2011-08-02 12:05 51°20.043 2°30.084 4 7 19.3 101450 53
2011-08-02 12:06 51°20.054 2°30.075 3.7 38 19.2 101460 53
2011-08-02 12:07 51°20.047 2°30.098 3.4 23 19.1 101450 52
2011-08-02 12:08 51°20.037 2°30.114 2.5 23 19.1 101460 52
2011-08-02 12:09 51°20.021 2°30.125 1.8 28 19.4 101450 54
2011-08-02 12:10 51°20 2°30.123 3.3 23 19.7 101450 53
2011-08-02 12:11 51°19.987 2°30.084 2.6 33 19.7 101450 52
2011-08-02 12:12 51°19.988 2°30.012 2.2 30 19.7 101450 52
2011-08-02 12:13 51°19.986 2°29.984 3.2 44 19.6 101450 52
2011-08-02 12:14 51°19.978 2°29.987 3.2 27 19.5 101450 51
2011-08-02 12:15 51°19.969 2°29.989 3.1 43 19.4 101450 52
2011-08-02 12:16 51°19.961 2°29.99 2.9 37 19.4 101450 51
2011-08-02 12:17 51°19.958 2°29.99 3.5 32 19.3 101450 52
2011-08-02 12:18 51°19.957 2°29.992 2.8 29 19.3 101450 52
2011-08-02 12:19 51°19.958 2°29.997 3.2 26 19.3 101450 52
2011-08-02 12:20 51°19.961 2°30.004 3 25 19.2 101450 53
2011-08-02 12:21 51°19.964 2°30.016 0.1 23 19.3 101450 53
2011-08-02 12:22 51°19.969 2°30.032 -999 19 19.3 101450 53
2011-08-02 12:23 51°19.976 2°30.049 -999 13 19.2 101450 52
2011-08-02 12:24 51°19.986 2°30.068 -999 8 19.2 101450 53
2011-08-02 12:25 51°19.997 2°30.089 -999 4 19.2 101440 53
2011-08-02 12:26 51°20.01 2°30.117 -999 1 19.1 101450 53
2011-08-02 12:27 51°20.024 2°30.153 -999 -999 19 101450 53
2011-08-02 12:28 51°20.038 2°30.187 -999 357 19 101450 53
2011-08-02 12:29 51°20.052 2°30.224 -999 355 18.9 101450 53
2011-08-02 12:30 51°20.063 2°30.262 -999 353 18.9 101450 53
2011-08-02 12:31 51°20.07 2°30.303 -999 354 18.9 101450 54
2011-08-02 12:32 51°20.075 2°30.343 -999 356 18.9 101450 54
2011-08-02 12:33 51°20.076 2°30.381 -999 357 18.9 101460 54
2011-08-02 12:34 51°20.085 2°30.423 -999 350 18.9 101450 54
2011-08-02 12:35 51°20.11 2°30.502 6.2 321 18.9 101450 55
2011-08-02 12:36 51°20.11 2°30.66 6.3 316 19 101450 54
2011-08-02 12:37 51°20.106 2°30.848 5.9 319 19.1 101440 54
2011-08-02 12:38 51°20.139 2°30.971 5.7 342 19.2 101450 53
2011-08-02 12:39 51°20.184 2°31.006 4.7 9 19.2 101450 53
2011-08-02 12:40 51°20.201 2°30.987 3.1 41 19.1 101450 54
2011-08-02 12:41 51°20.199 2°31.005 3.6 28 19.1 101450 53
2011-08-02 12:42 51°20.194 2°31.031 3.8 25 19 101450 53
2011-08-02 12:43 51°20.193 2°31.044 3.7 39 19 101440 54
2011-08-02 12:44 51°20.196 2°31.037 -999 33 19 101440 53
2011-08-02 12:45 51°20.201 2°31.034 -999 31 19 101440 54
2011-08-02 12:46 51°20.206 2°31.036 -999 31 19 101440 53
2011-08-02 12:47 51°20.209 2°31.034 -999 33 19 101440 53
2011-08-02 12:48 51°20.212 2°31.029 -999 33 19 101440 53
2011-08-02 12:49 51°20.214 2°31.026 -999 35 19 101440 53
2011-08-02 12:50 51°20.214 2°31.025 -999 34 19 101440 53
2011-08-02 12:51 51°20.214 2°31.026 -999 41 19.1 101440 53
2011-08-02 12:52 51°20.214 2°31.028 -999 36 19 101430 53
2011-08-02 12:53 51°20.214 2°31.029 -999 37 19.1 101430 53
2011-08-02 12:54 51°20.214 2°31.029 -999 39 19.1 101430 53
2011-08-02 12:55 51°20.214 2°31.029 -999 40 19.1 101430 53
2011-08-02 12:56 51°20.214 2°31.029 -999 38 19.1 101430 53
2011-08-02 12:57 51°20.214 2°31.028 -999 38 19.1 101430 53
2011-08-02 12:58 51°20.214 2°31.028 -999 38 19.1 101430 53
2011-08-02 12:59 51°20.214 2°31.027 -999 37 19.1 101430 53
2011-08-02 13:00 51°20.215 2°31.028 -999 38 19.1 101420 53
2011-08-02 13:01 51°20.215 2°31.028 -999 37 19.1 101420 54
2011-08-02 13:02 51°20.215 2°31.028 -999 38 19.1 101420 53
2011-08-02 13:03 51°20.215 2°31.028 -999 41 19.1 101420 54
2011-08-02 13:04 51°20.217 2°31.027 -999 41 19 101410 54
2011-08-02 13:05 51°20.218 2°31.025 -999 41 19 101420 54
2011-08-02 13:06 51°20.22 2°31.022 -999 41 19 101420 54
2011-08-02 13:07 51°20.22 2°31.021 -999 40 19 101420 54
2011-08-02 13:08 51°20.221 2°31.02 -999 42 18.9 101420 54
2011-08-02 13:09 51°20.221 2°31.019 -999 44 18.9 101420 54
2011-08-02 13:10 51°20.221 2°31.02 -999 43 18.9 101420 54
2011-08-02 13:11 51°20.22 2°31.021 -999 44 18.9 101420 54
2011-08-02 13:12 51°20.22 2°31.022 -999 44 18.9 101420 54
2011-08-02 13:13 51°20.22 2°31.023 -999 39 18.9 101420 54
2011-08-02 13:14 51°20.22 2°31.023 -999 41 18.9 101420 54
2011-08-02 13:15 51°20.22 2°31.022 -999 43 18.9 101420 54
2011-08-02 13:16 51°20.22 2°31.022 -999 45 18.9 101420 54
2011-08-02 13:17 51°20.221 2°31.022 -999 43 18.9 101410 54
2011-08-02 13:18 51°20.221 2°31.023 -999 45 18.9 101410 54
2011-08-02 13:19 51°20.22 2°31.026 -999 25 18.9 101410 54
2011-08-02 13:20 51°20.216 2°31.02 -999 42 18.9 101410 54
2011-08-02 13:21 51°20.208 2°31.01 3.3 24 18.9 101410 55
2011-08-02 13:22 51°20.202 2°31.007 3.9 30 18.9 101420 54
2011-08-02 13:23 51°20.2 2°31.021 3.7 21 18.9 101410 54
2011-08-02 13:24 51°20.195 2°31.037 4.1 30 18.9 101410 55
2011-08-02 13:25 51°20.16 2°31.089 7 247 19 101410 54
2011-08-02 13:26 51°20.074 2°31.244 8.3 26 19.1 101400 53
2011-08-02 13:27 51°19.922 2°31.464 9 23 19.2 101390 54
2011-08-02 13:28 51°19.777 2°31.729 8 29 19.2 101390 53
2011-08-02 13:29 51°19.63 2°31.96 9 27 19.2 101390 53
2011-08-02 13:30 51°19.48 2°32.208 7.5 28 19.3 101380 52
2011-08-02 13:31 51°19.328 2°32.425 7.9 29 19.4 101390 52
2011-08-02 13:32 51°19.178 2°32.664 7.6 29 19.4 101380 51
2011-08-02 13:33 51°19.026 2°32.888 8 28 19.4 101380 52
2011-08-02 13:34 51°18.879 2°33.133 9.4 30 19.4 101380 51
2011-08-02 13:35 51°18.738 2°33.385 7.8 31 19.5 101370 51
2011-08-02 13:36 51°18.588 2°33.622 9.6 28 19.6 101380 50
2011-08-02 13:37 51°18.441 2°33.881 7.6 23 19.6 101370 50
2011-08-02 13:38 51°18.29 2°34.125 9.7 22 19.6 101370 50
2011-08-02 13:39 51°18.151 2°34.38 8.8 24 19.7 101380 51
2011-08-02 13:40 51°17.995 2°34.605 7.8 22 19.7 101380 51
2011-08-02 13:41 51°17.849 2°34.847 9.1 23 19.6 101380 50
2011-08-02 13:42 51°17.692 2°35.08 8.1 27 19.6 101380 50
2011-08-02 13:43 51°17.528 2°35.31 7.3 22 19.6 101380 50
2011-08-02 13:44 51°17.37 2°35.55 9.3 26 19.6 101380 51
2011-08-02 13:45 51°17.208 2°35.796 8.9 26 19.6 101390 51
2011-08-02 13:46 51°17.046 2°36.012 9 25 19.5 101380 51
2011-08-02 13:47 51°16.89 2°36.252 8.4 21 19.5 101380 51
2011-08-02 13:48 51°16.727 2°36.448 6.1 241 19.5 101390 52
2011-08-02 13:49 51°16.583 2°36.562 6.2 23 19.5 101400 51
2011-08-02 13:50 51°16.551 2°36.695 7.6 27 19.6 101390 51
2011-08-02 13:51 51°16.607 2°36.803 8 345 19.6 101390 52
2011-08-02 13:52 51°16.652 2°36.845 5.8 7 19.5 101390 52
2011-08-02 13:53 51°16.665 2°36.888 5.9 18 19.4 101390 53
2011-08-02 13:54 51°16.679 2°36.927 5.7 22 19.3 101390 52
2011-08-02 13:55 51°16.695 2°36.964 5.5 24 19.3 101390 53
2011-08-02 13:56 51°16.713 2°37 6 24 19.3 101390 52
2011-08-02 13:57 51°16.731 2°37.035 5.6 30 19.2 101390 53
2011-08-02 13:58 51°16.75 2°37.069 6.7 28 19.2 101390 53
2011-08-02 13:59 51°16.77 2°37.102 5.3 32 19.2 101390 53
2011-08-02 14:00 51°16.789 2°37.135 5.8 28 19.2 101390 52
2011-08-02 14:01 51°16.808 2°37.166 6.4 32 19.2 101390 52
2011-08-02 14:02 51°16.827 2°37.196 6.1 34 19.2 101390 53
2011-08-02 14:03 51°16.846 2°37.226 6.1 32 19.2 101380 53
2011-08-02 14:04 51°16.865 2°37.254 6.3 31 19.2 101380 52
2011-08-02 14:05 51°16.884 2°37.283 6.1 31 19.2 101380 51
2011-08-02 14:06 51°16.904 2°37.312 6.2 27 19.2 101380 51
2011-08-02 14:07 51°16.924 2°37.341 5.8 26 19.3 101380 51
2011-08-02 14:08 51°16.946 2°37.366 5.6 28 19.3 101380 51
2011-08-02 14:09 51°16.969 2°37.392 5.7 24 19.3 101380 51
2011-08-02 14:10 51°16.992 2°37.419 5.2 22 19.3 101380 51
2011-08-02 14:11 51°17.014 2°37.446 5.8 20 19.3 101380 52
2011-08-02 14:12 51°17.045 2°37.457 6.1 31 19.3 101370 51
2011-08-02 14:13 51°17.056 2°37.413 4 28 19.3 101380 50
2011-08-02 14:14 51°16.98 2°37.367 -999 26 19.3 101380 51
2011-08-02 14:15 51°16.886 2°37.251 -999 25 19.4 101380 51
2011-08-02 14:16 51°16.795 2°37.115 -999 25 19.5 101380 51
2011-08-02 14:17 51°16.696 2°36.989 -999 27 19.6 101380 51
2011-08-02 14:18 51°16.626 2°36.886 -999 25 19.6 101380 50
2011-08-02 14:19 51°16.593 2°36.857 3.2 28 19.6 101380 51
2011-08-02 14:20 51°16.589 2°36.84 -999 25 19.7 101380 51
2011-08-02 14:21 51°16.598 2°36.832 5.9 21 19.7 101380 50
2011-08-02 14:22 51°16.612 2°36.829 -999 25 19.7 101380 50
2011-08-02 14:23 51°16.63 2°36.831 -999 44 19.7 101380 50
2011-08-02 14:24 51°16.651 2°36.837 -999 41 19.6 101370 50
2011-08-02 14:25 51°16.674 2°36.847 -999 33 19.6 101370 50
2011-08-02 14:26 51°16.698 2°36.861 -999 30 19.6 101370 50
2011-08-02 14:27 51°16.723 2°36.88 -999 25 19.6 101370 50
2011-08-02 14:28 51°16.748 2°36.902 -999 24 19.6 101370 50
2011-08-02 14:29 51°16.774 2°36.926 -999 21 19.6 101380 50
2011-08-02 14:30 51°16.798 2°36.951 -999 12 19.5 101370 50
2011-08-02 14:31 51°16.82 2°36.975 -999 13 19.6 101370 50
2011-08-02 14:32 51°16.841 2°37.001 -999 17 19.5 101370 50
2011-08-02 14:33 51°16.861 2°37.028 -999 24 19.5 101370 50
2011-08-02 14:34 51°16.877 2°37.054 -999 25 19.5 101370 51
2011-08-02 14:35 51°16.897 2°37.083 -999 28 19.5 101370 51
2011-08-02 14:36 51°16.915 2°37.112 -999 28 19.5 101370 50
2011-08-02 14:37 51°16.934 2°37.143 -999 31 19.5 101370 50
2011-08-02 14:38 51°16.954 2°37.173 -999 33 19.5 101370 50
2011-08-02 14:39 51°16.989 2°37.167 -999 17 19.5 101370 50
2011-08-02 14:40 51°17.082 2°37.155 -999 345 19.5 101370 50
2011-08-02 14:41 51°17.142 2°37.291 8.9 22 19.5 101360 49
2011-08-02 14:42 51°17.054 2°37.5 8.9 25 19.6 101360 50
2011-08-02 14:43 51°16.965 2°37.797 10 27 19.6 101360 49
2011-08-02 14:44 51°16.832 2°38.062 9 26 19.6 101360 49
2011-08-02 14:45 51°16.689 2°38.204 3.4 265 19.6 101360 50
2011-08-02 14:46 51°16.643 2°38.197 3.6 23 19.6 101380 50
2011-08-02 14:47 51°16.638 2°38.195 5 39 19.6 101370 50
2011-08-02 14:48 51°16.646 2°38.2 4.8 28 19.6 101370 50
2011-08-02 14:49 51°16.653 2°38.209 4 33 19.5 101370 50
2011-08-02 14:50 51°16.656 2°38.219 4.2 23 19.6 101360 50
2011-08-02 14:51 51°16.653 2°38.237 5.6 22 19.6 101370 49
2011-08-02 14:52 51°16.643 2°38.261 5.9 21 19.6 101370 49
2011-08-02 14:53 51°16.631 2°38.286 5.5 27 19.5 101370 49
2011-08-02 14:54 51°16.616 2°38.306 5.7 25 19.5 101370 49
2011-08-02 14:55 51°16.608 2°38.308 2 20 19.5 101360 50
2011-08-02 14:56 51°16.603 2°38.306 3.8 38 19.8 101360 50
2011-08-02 14:57 51°16.599 2°38.302 -999 36 20.1 101360 49
2011-08-02 14:58 51°16.592 2°38.3 -999 25 20.3 101360 47
2011-08-02 14:59 51°16.581 2°38.302 -999 25 20 101360 47
2011-08-02 15:00 51°16.566 2°38.311 -999 25 19.9 101370 48
2011-08-02 15:01 51°16.549 2°38.327 -999 36 19.8 101360 48
2011-08-02 15:02 51°16.537 2°38.336 -999 25 19.6 101370 48
2011-08-02 15:03 51°16.535 2°38.334 -999 25 19.6 101360 49
2011-08-02 15:04 51°16.538 2°38.325 -999 25 19.6 101360 49
2011-08-02 15:05 51°16.511 2°38.33 5.7 261 19.6 101370 49
2011-08-02 15:06 51°16.47 2°38.449 8 26 19.6 101360 49
2011-08-02 15:07 51°16.405 2°38.694 9.9 29 19.5 101340 49
2011-08-02 15:08 51°16.332 2°39.018 9.3 37 19.5 101340 49
2011-08-02 15:09 51°16.256 2°39.353 11.5 28 19.5 101340 49
2011-08-02 15:10 51°16.17 2°39.678 9.9 21 19.4 101330 49
2011-08-02 15:11 51°16.083 2°40.002 10.2 20 19.4 101330 50
2011-08-02 15:12 51°16.008 2°40.335 11.3 23 19.4 101330 49
2011-08-02 15:13 51°15.933 2°40.665 9.2 28 19.4 101330 49
2011-08-02 15:14 51°15.849 2°40.988 5.5 39 19.4 101330 50
2011-08-02 15:15 51°15.77 2°41.311 12.7 36 19.3 101330 50
2011-08-02 15:16 51°15.682 2°41.624 10.3 35 19.4 101330 50
2011-08-02 15:17 51°15.567 2°41.911 9.3 20 19.4 101330 49
2011-08-02 15:18 51°15.461 2°42.212 10 38 19.4 101330 50
2011-08-02 15:19 51°15.343 2°42.499 8.8 21 19.3 101330 50
2011-08-02 15:20 51°15.238 2°42.804 11.5 25 19.3 101330 49
2011-08-02 15:21 51°15.132 2°43.109 8.7 41 19.4 101330 50
2011-08-02 15:22 51°15.018 2°43.406 12.6 316 19.4 101340 50
2011-08-02 15:23 51°14.997 2°43.763 13 321 19.4 101340 50
2011-08-02 15:24 51°15.004 2°44.135 14.6 320 19.4 101330 50
2011-08-02 15:25 51°15.007 2°44.504 11.1 320 19.4 101330 49
2011-08-02 15:26 51°14.994 2°44.873 10.7 319 19.5 101330 49
2011-08-02 15:27 51°14.98 2°45.243 11.6 322 19.5 101320 49
2011-08-02 15:28 51°14.983 2°45.609 5.8 320 19.6 101320 50
2011-08-02 15:29 51°14.971 2°45.971 10.7 320 19.6 101320 49
2011-08-02 15:30 51°14.977 2°46.33 11.7 320 19.6 101320 49
2011-08-02 15:31 51°14.965 2°46.684 13.5 319 19.6 101320 49
2011-08-02 15:32 51°14.959 2°47.038 13.7 319 19.6 101320 49
2011-08-02 15:33 51°14.955 2°47.39 12.9 319 19.6 101320 48
2011-08-02 15:34 51°14.954 2°47.743 14.3 319 19.6 101320 49
2011-08-02 15:35 51°14.95 2°48.096 13.5 319 19.6 101320 50
2011-08-02 15:36 51°14.946 2°48.444 6.1 320 19.6 101320 49
2011-08-02 15:37 51°14.94 2°48.79 5.7 319 19.6 101320 50
2011-08-02 15:38 51°14.923 2°49.136 13.1 319 19.5 101320 50
2011-08-02 15:39 51°14.93 2°49.486 11 320 19.5 101320 50
2011-08-02 15:40 51°14.936 2°49.834 11.7 321 19.5 101320 50
2011-08-02 15:41 51°14.933 2°50.184 10.2 319 19.5 101320 49
2011-08-02 15:42 51°14.929 2°50.534 11.9 320 19.5 101330 50
2011-08-02 15:43 51°14.937 2°50.884 11 319 19.5 101330 51
2011-08-02 15:44 51°14.932 2°51.18 10.2 318 19.5 101330 51
2011-08-02 15:45 51°14.93 2°51.458 8.7 318 19.5 101330 51
2011-08-02 15:46 51°14.939 2°51.719 10.9 316 19.5 101330 51
2011-08-02 15:47 51°14.944 2°51.948 8.3 24 19.5 101330 51
2011-08-02 15:48 51°14.943 2°52.148 8.1 21 19.5 101340 51
2011-08-02 15:49 51°14.942 2°52.32 7.8 316 19.4 101340 51
2011-08-02 15:50 51°14.946 2°52.475 7.2 26 19.4 101340 51
2011-08-02 15:51 51°14.951 2°52.627 3.7 26 19.4 101340 51
2011-08-02 15:52 51°14.953 2°52.768 8.4 22 19.4 101340 50
2011-08-02 15:53 51°14.956 2°52.905 8.3 21 19.4 101340 51
2011-08-02 15:54 51°14.958 2°53.033 8.1 25 19.4 101340 51
2011-08-02 15:55 51°14.962 2°53.147 6.9 26 19.4 101340 51
2011-08-02 15:56 51°14.967 2°53.238 7 27 19.4 101340 51
2011-08-02 15:57 51°14.976 2°53.307 7.2 25 19.4 101340 52
2011-08-02 15:58 51°14.979 2°53.368 6.1 27 19.4 101350 51
2011-08-02 15:59 51°14.977 2°53.443 6 24 19.3 101340 52
2011-08-02 16:00 51°14.96 2°53.554 6.9 28 19.3 101350 52
2011-08-02 16:01 51°14.931 2°53.712 8.9 29 19.3 101340 52
2011-08-02 16:02 51°14.883 2°53.93 7.5 26 19.3 101340 52
2011-08-02 16:03 51°14.828 2°54.182 8.6 30 19.3 101330 52
2011-08-02 16:04 51°14.762 2°54.447 9.5 26 19.4 101330 52
2011-08-02 16:05 51°14.687 2°54.717 10.9 25 19.3 101330 52
2011-08-02 16:06 51°14.584 2°54.971 8.4 30 19.4 101340 52
2011-08-02 16:07 51°14.43 2°55.146 8.3 23 19.4 101350 52
2011-08-02 16:08 51°14.269 2°55.299 6.7 25 19.4 101350 52
2011-08-02 16:09 51°14.114 2°55.419 6.3 30 19.4 101360 53
2011-08-02 16:10 51°13.996 2°55.505 4 22 19.5 101360 51
2011-08-02 16:11 51°13.883 2°55.586 2.9 21 19.6 101360 52
2011-08-02 16:12 51°13.781 2°55.67 2.2 321 19.8 101360 52
2011-08-02 16:13 51°13.708 2°55.781 -999 25 20.1 101360 51
2011-08-02 16:14 51°13.655 2°55.894 -999 337 20.4 101360 51
2011-08-02 16:15 51°13.626 2°55.99 -999 317 20.7 101360 50
2011-08-02 16:16 51°13.611 2°56.058 -999 242 21 101360 49